Alpha, IL (61413)

12:42 AM CDT on September 24, 2014 (GMT -0500)
Old Schoolhouse Lane | Change Station
CLOSE
Current Station
Personal Weather Station
Location: Ophiem, IL
Elevation: 696 ft
Nearby Weather Stations

Elev 696 ft 41.25 °N, 90.38 °W | Updated 34 seconds ago

Partly Cloudy
Partly Cloudy
50.0 °F
Feels Like 50.0 °F
N
0.0
Wind Variable Wind from SSE
Gusts 0.0 mph

Today
High -- | Low -- °F
--% Chance of Precip.
Yesterday
High -- | Low -- °F
Precip. -- in
6:51 AM 6:55 PM
Waning Crescent, 0% visible
Pressure 30.27 in
Visibility 10.0 miles
Clouds Clear
Dew Point 48 °F
Humidity 94%
Rainfall 0.00 in
Snow Depth Not available.
UV 0 out of 12
Pollen 4.80 out of 12
Air Quality Not available.
Flu Activity Not available.
METAR KMLI 240452Z AUTO 08006KT 10SM CLR 12/09 A3026 RMK AO2 SLP248 T01170089

More Conditions Fewer Conditions

Pressure 30.27 in
Visibility 10.0 miles
Clouds Clear
Dew Point 48 °F
Humidity 94%
Rainfall 0.00 in
Snow Depth Not available.
UV 0 out of 12
Pollen 4.80 out of 12
Air Quality Not available.
Flu Activity Not available.
METAR KMLI 240452Z AUTO 08006KT 10SM CLR 12/09 A3026 RMK AO2 SLP248 T01170089

More Conditions Fewer Conditions

10-Day Weather Forecast

Almanac

Astronomy

Sep. 24, 2014 Rise Set
Actual Time 6:51 AM CDT 6:55 PM CDT
Civil Twilight 6:23 AM CDT 7:22 PM CDT
Nautical Twilight 5:51 AM CDT 7:54 PM CDT
Astronomical Twilight 5:18 AM CDT 8:27 PM CDT
Moon 7:12 AM CDT 7:05 PM CDT
Length of Visible Light 12h 59m
Length of Day
12h 04m
Tomorrow will be 2m 43s shorter.
Waning Crescent, 0% of the Moon is Illuminated
Today
Waning Crescent
Sep 24
New
Oct 1
First Quarter
Oct 8
Full
Oct 15
Last Quarter

Today's Extremes

State Highs State Lows

Community

WunderPhotos

Upload Photos

1,755,891 photos uploaded!

WunderBlogs® & News

Nearby

Snow Depth

Station Depth Elevation
No new snow has been reported.

Earthquake Activity

City Distance Mag. Time & Date
No recent earthquake activity has been reported nearby.
Minimum magnitude displayed is 2.5.

Coastal Water Temperatures

Place Temperature
No Stations Reporting

Nearby Weather Stations